createdAt,value
2017-07-14T00:00:14.707Z,0
2017-07-14T00:01:14.639Z,0
2017-07-14T00:02:14.649Z,0
2017-07-14T00:03:14.295Z,0
2017-07-14T00:04:14.574Z,0
2017-07-14T00:05:14.265Z,0
2017-07-14T00:06:14.543Z,0
2017-07-14T00:07:14.537Z,0
2017-07-14T00:08:14.186Z,0
2017-07-14T00:09:14.468Z,0
2017-07-14T00:10:14.455Z,0
2017-07-14T00:11:14.442Z,0
2017-07-14T00:12:14.423Z,0
2017-07-14T00:13:14.403Z,0
2017-07-14T00:14:14.373Z,0
2017-07-14T00:15:14.358Z,0
2017-07-14T00:16:14.325Z,0
2017-07-14T00:17:14.305Z,0
2017-07-14T00:18:14.297Z,0
2017-07-14T00:19:14.269Z,0
2017-07-14T00:20:14.289Z,0
2017-07-14T00:21:14.227Z,0
2017-07-14T00:22:14.203Z,0
2017-07-14T00:23:14.168Z,0
2017-07-14T00:24:13.841Z,0
2017-07-14T00:25:14.160Z,0
2017-07-14T00:26:14.121Z,0
2017-07-14T00:27:14.093Z,0
2017-07-14T00:28:14.087Z,0
2017-07-14T00:29:14.045Z,0
2017-07-14T00:30:14.025Z,0
2017-07-14T00:31:14.065Z,0
2017-07-14T00:32:13.992Z,0
2017-07-14T00:33:13.990Z,0
2017-07-14T00:34:13.951Z,0
2017-07-14T00:35:13.978Z,0
2017-07-14T00:36:13.921Z,0
2017-07-14T00:37:13.889Z,0
2017-07-14T00:38:13.852Z,0
2017-07-14T00:39:13.837Z,0
2017-07-14T00:40:13.517Z,0
2017-07-14T00:41:13.797Z,0
2017-07-14T00:42:13.772Z,0
2017-07-14T00:43:13.756Z,0
2017-07-14T00:44:13.434Z,0
2017-07-14T00:45:13.709Z,0
2017-07-14T00:46:13.688Z,0
2017-07-14T00:47:13.663Z,0
2017-07-14T00:48:13.644Z,0
2017-07-14T00:49:13.671Z,0
2017-07-14T00:50:13.649Z,0
2017-07-14T00:51:13.608Z,0
2017-07-14T00:52:13.565Z,0
2017-07-14T00:53:13.542Z,0
2017-07-14T00:54:13.206Z,0
2017-07-14T00:55:13.494Z,0
2017-07-14T00:56:13.483Z,0
2017-07-14T00:57:13.453Z,0
2017-07-14T00:58:13.440Z,0
2017-07-14T00:59:13.417Z,0
2017-07-14T01:00:13.394Z,0
2017-07-14T01:01:13.374Z,0
2017-07-14T01:02:13.355Z,0
2017-07-14T01:03:13.317Z,0
2017-07-14T01:04:13.311Z,0
2017-07-14T01:05:12.986Z,0
2017-07-14T01:06:13.558Z,0
2017-07-14T01:07:13.239Z,0
2017-07-14T01:08:13.235Z,0
2017-07-14T01:09:13.250Z,0
2017-07-14T01:10:13.239Z,0
2017-07-14T01:11:13.146Z,0
2017-07-14T01:12:13.185Z,0
2017-07-14T01:13:13.108Z,0
2017-07-14T01:14:12.801Z,0
2017-07-14T01:15:13.084Z,0
2017-07-14T01:16:13.350Z,0
2017-07-14T01:17:13.031Z,0
2017-07-14T01:18:13.010Z,0
2017-07-14T01:19:13.034Z,0
2017-07-14T01:20:12.975Z,0
2017-07-14T01:21:12.949Z,0
2017-07-14T01:22:13.211Z,0
2017-07-14T01:23:12.945Z,0
2017-07-14T01:24:12.874Z,0
2017-07-14T01:25:12.877Z,0
2017-07-14T01:26:12.894Z,0
2017-07-14T01:27:12.819Z,0
2017-07-14T01:28:12.797Z,0
2017-07-14T01:29:12.462Z,0
2017-07-14T01:30:12.443Z,0
2017-07-14T01:31:12.461Z,0
2017-07-14T01:32:12.705Z,0
2017-07-14T01:33:12.377Z,0
2017-07-14T01:34:12.676Z,0
2017-07-14T01:35:12.646Z,0
2017-07-14T01:36:12.311Z,0
2017-07-14T01:37:12.594Z,0
2017-07-14T01:38:12.576Z,0
2017-07-14T01:39:12.561Z,0
2017-07-14T01:40:12.532Z,0
2017-07-14T01:41:12.519Z,0
2017-07-14T01:42:12.489Z,0
2017-07-14T01:43:12.520Z,0
2017-07-14T01:44:12.505Z,0
2017-07-14T01:45:12.448Z,0
2017-07-14T01:46:12.454Z,0
2017-07-14T01:47:12.440Z,0
2017-07-14T01:48:12.371Z,0
2017-07-14T01:49:12.341Z,0
2017-07-14T01:50:12.328Z,0
2017-07-14T01:51:12.301Z,0
2017-07-14T01:52:12.285Z,0
2017-07-14T01:53:12.274Z,0
2017-07-14T01:54:12.237Z,0
2017-07-14T01:55:12.229Z,0
2017-07-14T01:56:12.193Z,0
2017-07-14T01:57:12.176Z,0
2017-07-14T01:58:12.190Z,0
2017-07-14T01:59:12.133Z,0
2017-07-14T02:00:11.796Z,0
2017-07-14T02:01:12.083Z,0
2017-07-14T02:02:12.064Z,0
2017-07-14T02:03:12.069Z,0
2017-07-14T02:04:12.015Z,0
2017-07-14T02:05:11.997Z,0
2017-07-14T02:06:11.980Z,0
2017-07-14T02:07:11.945Z,0
2017-07-14T02:08:11.932Z,0
2017-07-14T02:09:11.601Z,0
2017-07-14T02:10:11.890Z,0
2017-07-14T02:11:11.860Z,0
2017-07-14T02:12:11.531Z,0
2017-07-14T02:13:11.827Z,0
2017-07-14T02:14:11.800Z,0
2017-07-14T02:15:11.772Z,0
2017-07-14T02:16:11.753Z,0
2017-07-14T02:17:11.427Z,0
2017-07-14T02:18:11.707Z,0
2017-07-14T02:19:11.697Z,0
2017-07-14T02:20:11.673Z,0
2017-07-14T02:21:11.659Z,0
2017-07-14T02:22:11.629Z,0
2017-07-14T02:23:11.305Z,0
2017-07-14T02:24:11.274Z,0
2017-07-14T02:25:11.251Z,0
2017-07-14T02:26:11.555Z,0
2017-07-14T02:27:11.839Z,0
2017-07-14T02:28:11.515Z,0
2017-07-14T02:29:11.494Z,0
2017-07-14T02:30:11.154Z,0
2017-07-14T02:31:11.434Z,0
2017-07-14T02:32:11.415Z,0
2017-07-14T02:33:11.087Z,0
2017-07-14T02:34:11.372Z,0
2017-07-14T02:35:11.371Z,0
2017-07-14T02:36:11.324Z,0
2017-07-14T02:37:11.313Z,0
2017-07-14T02:38:11.335Z,0
2017-07-14T02:39:11.262Z,0
2017-07-14T02:40:11.241Z,0
2017-07-14T02:41:11.218Z,0
2017-07-14T02:42:11.193Z,0
2017-07-14T02:43:11.177Z,0
2017-07-14T02:44:11.158Z,0
2017-07-14T02:45:10.831Z,0
2017-07-14T02:46:11.119Z,0
2017-07-14T02:47:11.096Z,0
2017-07-14T02:48:11.117Z,0
2017-07-14T02:49:10.739Z,0
2017-07-14T02:50:11.025Z,0
2017-07-14T02:51:10.697Z,0
2017-07-14T02:52:11.030Z,0
2017-07-14T02:53:10.968Z,0
2017-07-14T02:54:10.639Z,0
2017-07-14T02:55:10.968Z,0
2017-07-14T02:56:10.903Z,0
2017-07-14T02:57:10.883Z,0
2017-07-14T02:58:10.848Z,0
2017-07-14T02:59:10.837Z,0
2017-07-14T03:00:10.501Z,0
2017-07-14T03:01:10.789Z,0
2017-07-14T03:02:10.762Z,0
2017-07-14T03:03:10.488Z,0
2017-07-14T03:04:10.724Z,0
2017-07-14T03:05:10.710Z,0
2017-07-14T03:06:10.688Z,0
2017-07-14T03:07:10.667Z,0
2017-07-14T03:08:10.652Z,0
2017-07-14T03:09:10.674Z,0
2017-07-14T03:10:10.594Z,0
2017-07-14T03:11:10.919Z,0
2017-07-14T03:12:10.546Z,0
2017-07-14T03:13:10.545Z,0
2017-07-14T03:14:10.508Z,0
2017-07-14T03:15:10.535Z,0
2017-07-14T03:16:10.515Z,0
2017-07-14T03:17:10.513Z,0
2017-07-14T03:18:10.472Z,0
2017-07-14T03:19:10.401Z,0
2017-07-14T03:20:10.377Z,5
2017-07-14T03:21:10.357Z,5
2017-07-14T03:22:10.393Z,5
2017-07-14T03:23:10.052Z,5
2017-07-14T03:24:10.281Z,5
2017-07-14T03:25:10.274Z,5
2017-07-14T03:26:09.941Z,5
2017-07-14T03:27:10.529Z,5
2017-07-14T03:28:10.216Z,5
2017-07-14T03:29:10.183Z,5
2017-07-14T03:30:10.157Z,10
2017-07-14T03:31:10.139Z,10
2017-07-14T03:32:10.113Z,10
2017-07-14T03:33:10.085Z,10
2017-07-14T03:34:10.113Z,10
2017-07-14T03:35:10.042Z,10
2017-07-14T03:36:10.026Z,10
2017-07-14T03:37:10.012Z,15
2017-07-14T03:38:09.675Z,15
2017-07-14T03:39:09.962Z,15
2017-07-14T03:40:09.969Z,15
2017-07-14T03:41:09.920Z,15
2017-07-14T03:42:09.895Z,20
2017-07-14T03:43:09.876Z,20
2017-07-14T03:44:09.849Z,20
2017-07-14T03:45:09.849Z,20
2017-07-14T03:46:09.810Z,25
2017-07-14T03:47:09.783Z,25
2017-07-14T03:48:09.768Z,25
2017-07-14T03:49:09.743Z,30
2017-07-14T03:50:09.715Z,30
2017-07-14T03:51:09.701Z,30
2017-07-14T03:52:09.679Z,35
2017-07-14T03:53:09.657Z,35
2017-07-14T03:54:09.632Z,35
2017-07-14T03:55:09.616Z,40
2017-07-14T03:56:09.592Z,40
2017-07-14T03:57:09.587Z,40
2017-07-14T03:58:09.545Z,40
2017-07-14T03:59:09.267Z,45
2017-07-14T04:00:09.503Z,45
2017-07-14T04:01:09.481Z,50
2017-07-14T04:02:09.203Z,50
2017-07-14T04:03:09.443Z,60
2017-07-14T04:04:09.465Z,65
2017-07-14T04:05:09.390Z,65
2017-07-14T04:06:09.422Z,70
2017-07-14T04:07:09.350Z,75
2017-07-14T04:08:09.331Z,75
2017-07-14T04:09:09.002Z,80
2017-07-14T04:10:09.287Z,85
2017-07-14T04:11:09.260Z,90
2017-07-14T04:12:08.951Z,95
2017-07-14T04:13:08.914Z,100
2017-07-14T04:14:09.196Z,100
2017-07-14T04:15:09.237Z,110
2017-07-14T04:16:09.154Z,115
2017-07-14T04:17:09.133Z,120
2017-07-14T04:18:09.115Z,125
2017-07-14T04:19:09.118Z,130
2017-07-14T04:20:09.145Z,140
2017-07-14T04:21:09.099Z,145
2017-07-14T04:22:09.045Z,150
2017-07-14T04:23:09.006Z,155
2017-07-14T04:24:08.980Z,160
2017-07-14T04:25:08.659Z,160
2017-07-14T04:26:08.376Z,165
2017-07-14T04:27:08.616Z,175
2017-07-14T04:28:08.945Z,180
2017-07-14T04:29:08.881Z,185
2017-07-14T04:30:08.866Z,190
2017-07-14T04:31:08.837Z,190
2017-07-14T04:32:08.849Z,195
2017-07-14T04:33:08.486Z,195
2017-07-14T04:34:08.474Z,195
2017-07-14T04:35:08.758Z,205
2017-07-14T04:36:08.731Z,210
2017-07-14T04:37:08.708Z,215
2017-07-14T04:38:08.695Z,225
2017-07-14T04:39:08.679Z,235
2017-07-14T04:40:08.647Z,245
2017-07-14T04:41:08.638Z,250
2017-07-14T04:42:08.308Z,260
2017-07-14T04:43:08.642Z,260
2017-07-14T04:44:08.576Z,260
2017-07-14T04:45:08.242Z,260
2017-07-14T04:46:08.563Z,265
2017-07-14T04:47:08.560Z,270
2017-07-14T04:48:08.486Z,270
2017-07-14T04:49:08.475Z,260
2017-07-14T04:50:08.450Z,280
2017-07-14T04:51:08.451Z,280
2017-07-14T04:52:08.417Z,285
2017-07-14T04:53:08.078Z,280
2017-07-14T04:54:08.372Z,280
2017-07-14T04:55:08.046Z,275
2017-07-14T04:56:08.028Z,280
2017-07-14T04:57:08.318Z,280
2017-07-14T04:58:08.301Z,265
2017-07-14T04:59:08.267Z,260
2017-07-14T05:00:08.250Z,250
2017-07-14T05:01:08.285Z,245
2017-07-14T05:02:08.217Z,250
2017-07-14T05:03:08.209Z,250
2017-07-14T05:04:07.921Z,270
2017-07-14T05:05:08.179Z,285
2017-07-14T05:06:08.130Z,290
2017-07-14T05:07:08.123Z,280
2017-07-14T05:08:08.108Z,265
2017-07-14T05:09:08.086Z,270
2017-07-14T05:10:08.051Z,270
2017-07-14T05:11:08.039Z,275
2017-07-14T05:12:07.403Z,275
2017-07-14T05:13:08.022Z,285
2017-07-14T05:14:07.983Z,300
2017-07-14T05:15:07.977Z,325
2017-07-14T05:16:07.942Z,355
2017-07-14T05:17:07.955Z,355
2017-07-14T05:18:07.641Z,365
2017-07-14T05:19:07.571Z,375
2017-07-14T05:20:07.860Z,375
2017-07-14T05:21:07.538Z,390
2017-07-14T05:22:07.833Z,400
2017-07-14T05:23:07.806Z,405
2017-07-14T05:24:07.779Z,410
2017-07-14T05:25:07.821Z,415
2017-07-14T05:26:07.761Z,425
2017-07-14T05:27:07.741Z,430
2017-07-14T05:28:07.706Z,440
2017-07-14T05:29:07.447Z,445
2017-07-14T05:30:07.669Z,450
2017-07-14T05:31:07.708Z,455
2017-07-14T05:32:07.942Z,460
2017-07-14T05:33:07.629Z,465
2017-07-14T05:34:07.663Z,470
2017-07-14T05:35:07.589Z,475
2017-07-14T05:36:07.570Z,480
2017-07-14T05:37:07.557Z,485
2017-07-14T05:38:07.601Z,500
2017-07-14T05:39:06.904Z,520
2017-07-14T05:40:07.195Z,525
2017-07-14T05:41:07.228Z,525
2017-07-14T05:42:07.480Z,535
2017-07-14T05:43:07.159Z,540
2017-07-14T05:44:07.437Z,550
2017-07-14T05:45:07.115Z,560
2017-07-14T05:46:07.408Z,570
2017-07-14T05:47:07.393Z,565
2017-07-14T05:48:07.374Z,570
2017-07-14T05:49:07.344Z,500
2017-07-14T05:50:07.341Z,415
2017-07-14T05:51:07.315Z,405
2017-07-14T05:52:07.301Z,405
2017-07-14T05:53:07.276Z,455
2017-07-14T05:54:06.968Z,535
2017-07-14T05:55:07.255Z,595
2017-07-14T05:56:07.243Z,595
2017-07-14T05:57:07.219Z,610
2017-07-14T05:58:07.219Z,625
2017-07-14T05:59:07.202Z,635
2017-07-14T06:00:07.175Z,650
2017-07-14T06:01:07.158Z,670
2017-07-14T06:02:07.137Z,700
2017-07-14T06:03:07.130Z,685
2017-07-14T06:04:07.100Z,690
2017-07-14T06:05:07.092Z,615
2017-07-14T06:06:07.076Z,680
2017-07-14T06:07:07.073Z,715
2017-07-14T06:08:07.093Z,710
2017-07-14T06:09:07.019Z,650
2017-07-14T06:10:07.037Z,725
2017-07-14T06:11:07.016Z,725
2017-07-14T06:12:06.985Z,725
2017-07-14T06:13:07.014Z,730
2017-07-14T06:14:06.986Z,745
2017-07-14T06:15:06.629Z,760
2017-07-14T06:16:06.940Z,765
2017-07-14T06:17:06.902Z,775
2017-07-14T06:18:06.890Z,790
2017-07-14T06:19:06.582Z,790
2017-07-14T06:20:06.556Z,805
2017-07-14T06:21:06.856Z,800
2017-07-14T06:22:06.844Z,785
2017-07-14T06:23:06.823Z,790
2017-07-14T06:24:06.798Z,790
2017-07-14T06:25:06.799Z,805
2017-07-14T06:26:06.481Z,815
2017-07-14T06:27:06.163Z,825
2017-07-14T06:28:06.765Z,830
2017-07-14T06:29:06.754Z,835
2017-07-14T06:30:06.727Z,850
2017-07-14T06:31:06.712Z,850
2017-07-14T06:32:06.708Z,860
2017-07-14T06:33:06.382Z,875
2017-07-14T06:34:06.667Z,890
2017-07-14T06:35:06.717Z,885
2017-07-14T06:36:06.650Z,900
2017-07-14T06:37:06.651Z,910
2017-07-14T06:38:06.621Z,915
2017-07-14T06:39:06.608Z,910
2017-07-14T06:40:06.608Z,920
2017-07-14T06:41:06.595Z,885
2017-07-14T06:42:06.277Z,910
2017-07-14T06:43:06.268Z,935
2017-07-14T06:44:06.606Z,945
2017-07-14T06:45:06.557Z,960
2017-07-14T06:46:06.535Z,960
2017-07-14T06:47:06.579Z,960
2017-07-14T06:48:06.507Z,970
2017-07-14T06:49:06.191Z,975
2017-07-14T06:50:06.498Z,1000
2017-07-14T06:51:06.523Z,1010
2017-07-14T06:52:06.462Z,1015
2017-07-14T06:53:06.451Z,1030
2017-07-14T06:54:06.464Z,1040
2017-07-14T06:55:06.434Z,1030
2017-07-14T06:56:06.415Z,1020
2017-07-14T06:57:06.414Z,1020
2017-07-14T06:58:06.394Z,1040
2017-07-14T06:59:06.399Z,1055
2017-07-14T07:00:06.378Z,1050
2017-07-14T07:01:06.105Z,1060
2017-07-14T07:02:06.099Z,1060
2017-07-14T07:03:06.358Z,1095
2017-07-14T07:04:06.330Z,1095
2017-07-14T07:05:06.336Z,1090
2017-07-14T07:06:06.310Z,1115
2017-07-14T07:07:06.307Z,1125
2017-07-14T07:08:06.351Z,1130
2017-07-14T07:09:06.301Z,1155
2017-07-14T07:10:06.277Z,1160
2017-07-14T07:11:05.648Z,1155
2017-07-14T07:12:06.254Z,1175
2017-07-14T07:13:05.637Z,1185
2017-07-14T07:14:06.232Z,1200
2017-07-14T07:15:05.920Z,1190
2017-07-14T07:16:06.216Z,1185
2017-07-14T07:17:06.204Z,1185
2017-07-14T07:18:05.914Z,1190
2017-07-14T07:19:05.576Z,1205
2017-07-14T07:20:06.219Z,1170
2017-07-14T07:21:06.164Z,1160
2017-07-14T07:22:05.846Z,1180
2017-07-14T07:23:05.828Z,1195
2017-07-14T07:24:06.123Z,1215
2017-07-14T07:25:05.824Z,1210
2017-07-14T07:26:06.115Z,1235
2017-07-14T07:27:06.096Z,1260
2017-07-14T07:28:06.084Z,1195
2017-07-14T07:29:06.082Z,1205
2017-07-14T07:30:06.074Z,1200
2017-07-14T07:31:06.065Z,1215
2017-07-14T07:32:05.798Z,1225
2017-07-14T07:33:06.088Z,1260
2017-07-14T07:34:06.024Z,1260
2017-07-14T07:35:06.027Z,1325
2017-07-14T07:36:06.018Z,1310
2017-07-14T07:37:06.034Z,1295
2017-07-14T07:38:05.999Z,1195
2017-07-14T07:39:05.698Z,1285
2017-07-14T07:40:05.677Z,1305
2017-07-14T07:41:05.979Z,1335
2017-07-14T07:42:06.071Z,1370
2017-07-14T07:43:05.953Z,1370
2017-07-14T07:44:05.955Z,1395
2017-07-14T07:45:05.951Z,1390
2017-07-14T07:46:05.961Z,1190
2017-07-14T07:47:05.930Z,1405
2017-07-14T07:48:05.917Z,1465
2017-07-14T07:49:05.599Z,1445
2017-07-14T07:50:05.612Z,1505
2017-07-14T07:51:05.895Z,1510
2017-07-14T07:52:05.892Z,1505
2017-07-14T07:53:05.871Z,1515
2017-07-14T07:54:05.873Z,1515
2017-07-14T07:55:05.867Z,1365
2017-07-14T07:56:05.542Z,1185
2017-07-14T07:57:06.161Z,1305
2017-07-14T07:58:05.830Z,1595
2017-07-14T07:59:05.581Z,1635
2017-07-14T08:00:05.831Z,1610
2017-07-14T08:01:05.804Z,1645
2017-07-14T08:02:05.821Z,1545
2017-07-14T08:03:05.499Z,1120
2017-07-14T08:04:05.804Z,1020
2017-07-14T08:05:05.788Z,1095
2017-07-14T08:06:05.835Z,790
2017-07-14T08:07:05.770Z,500
2017-07-14T08:08:05.752Z,495
2017-07-14T08:09:05.445Z,725
2017-07-14T08:10:05.742Z,1090
2017-07-14T08:11:05.736Z,1155
2017-07-14T08:12:05.742Z,1720
2017-07-14T08:13:05.763Z,1660
2017-07-14T08:14:05.404Z,1880
2017-07-14T08:15:05.390Z,1905
2017-07-14T08:16:05.697Z,1740
2017-07-14T08:17:05.770Z,1930
2017-07-14T08:18:05.706Z,1740
2017-07-14T08:19:05.343Z,1115
2017-07-14T08:20:05.662Z,1065
2017-07-14T08:21:05.663Z,770
2017-07-14T08:22:05.637Z,680
2017-07-14T08:23:05.301Z,610
2017-07-14T08:24:05.605Z,595
2017-07-14T08:25:05.590Z,605
2017-07-14T08:26:05.604Z,565
2017-07-14T08:27:05.584Z,515
2017-07-14T08:28:05.623Z,510
2017-07-14T08:29:05.572Z,545
2017-07-14T08:30:05.548Z,615
2017-07-14T08:31:05.541Z,600
2017-07-14T08:32:05.531Z,705
2017-07-14T08:33:05.532Z,775
2017-07-14T08:34:05.503Z,660
2017-07-14T08:35:05.181Z,695
2017-07-14T08:36:05.568Z,695
2017-07-14T08:37:05.474Z,1405
2017-07-14T08:38:05.466Z,1835
2017-07-14T08:39:05.439Z,745
2017-07-14T08:40:05.422Z,640
2017-07-14T08:41:05.418Z,610
2017-07-14T08:42:05.407Z,1530
2017-07-14T08:43:05.403Z,1025
2017-07-14T08:44:05.443Z,1550
2017-07-14T08:45:05.487Z,1285
2017-07-14T08:46:05.420Z,1960
2017-07-14T08:47:05.054Z,1755
2017-07-14T08:48:05.350Z,2040
2017-07-14T08:49:05.386Z,2085
2017-07-14T08:50:05.320Z,1920
2017-07-14T08:51:05.360Z,1175
2017-07-14T08:52:05.297Z,1965
2017-07-14T08:53:04.971Z,1920
2017-07-14T08:54:05.279Z,1775
2017-07-14T08:55:05.284Z,1855
2017-07-14T08:56:04.962Z,1870
2017-07-14T08:57:05.271Z,1835
2017-07-14T08:58:05.245Z,1960
2017-07-14T08:59:05.301Z,2000
2017-07-14T09:00:05.219Z,1930
2017-07-14T09:01:05.216Z,1140
2017-07-14T09:02:05.210Z,710
2017-07-14T09:03:05.195Z,1415
2017-07-14T09:04:04.890Z,525
2017-07-14T09:05:05.191Z,485
2017-07-14T09:06:05.189Z,440
2017-07-14T09:07:05.173Z,425
2017-07-14T09:08:04.614Z,440
2017-07-14T09:09:05.153Z,415
2017-07-14T09:10:04.843Z,405
2017-07-14T09:11:04.812Z,395
2017-07-14T09:12:05.119Z,410
2017-07-14T09:13:04.492Z,1675
2017-07-14T09:14:05.090Z,1890
2017-07-14T09:15:04.802Z,1865
2017-07-14T09:16:05.125Z,1875
2017-07-14T09:17:05.049Z,1895
2017-07-14T09:18:05.053Z,1920
2017-07-14T09:19:05.033Z,1910
2017-07-14T09:20:04.409Z,1880
2017-07-14T09:21:05.060Z,1850
2017-07-14T09:22:05.013Z,1555
2017-07-14T09:23:04.684Z,675
2017-07-14T09:24:04.985Z,1605
2017-07-14T09:25:04.972Z,1815
2017-07-14T09:26:04.654Z,1885
2017-07-14T09:27:04.960Z,820
2017-07-14T09:28:04.961Z,1735
2017-07-14T09:29:04.940Z,1970
2017-07-14T09:30:04.933Z,1655
2017-07-14T09:31:04.915Z,1470
2017-07-14T09:32:04.908Z,2020
2017-07-14T09:33:04.911Z,1735
2017-07-14T09:34:04.905Z,1720
2017-07-14T09:35:04.886Z,1975
2017-07-14T09:36:04.935Z,1960
2017-07-14T09:37:04.872Z,1485
2017-07-14T09:38:04.866Z,1050
2017-07-14T09:39:04.868Z,665
2017-07-14T09:40:04.864Z,605
2017-07-14T09:41:04.848Z,605
2017-07-14T09:42:04.836Z,645
2017-07-14T09:43:04.837Z,625
2017-07-14T09:44:04.825Z,680
2017-07-14T09:45:04.508Z,770
2017-07-14T09:46:04.800Z,1205
2017-07-14T09:47:04.793Z,1610
2017-07-14T09:48:04.778Z,1465
2017-07-14T09:49:04.776Z,2025
2017-07-14T09:50:04.759Z,990
2017-07-14T09:51:04.743Z,1050
2017-07-14T09:52:04.738Z,1925
2017-07-14T09:53:04.732Z,905
2017-07-14T09:54:04.730Z,1645
2017-07-14T09:55:04.723Z,1850
2017-07-14T09:56:04.716Z,1115
2017-07-14T09:57:04.378Z,1750
2017-07-14T09:58:04.666Z,2080
2017-07-14T09:59:04.674Z,2145
2017-07-14T10:00:04.664Z,1360
2017-07-14T10:01:04.751Z,1920
2017-07-14T10:02:04.636Z,1790
2017-07-14T10:03:04.338Z,1825
2017-07-14T10:04:04.614Z,1550
2017-07-14T10:05:04.308Z,1245
2017-07-14T10:06:04.297Z,940
2017-07-14T10:07:04.591Z,845
2017-07-14T10:08:04.571Z,825
2017-07-14T10:09:04.260Z,1690
2017-07-14T10:10:04.574Z,970
2017-07-14T10:11:04.553Z,1665
2017-07-14T10:12:04.548Z,1320
2017-07-14T10:13:04.529Z,1600
2017-07-14T10:14:04.514Z,1245
2017-07-14T10:15:04.570Z,1095
2017-07-14T10:16:04.497Z,1190
2017-07-14T10:17:04.491Z,1105
2017-07-14T10:18:04.495Z,855
2017-07-14T10:19:04.485Z,985
2017-07-14T10:20:04.161Z,940
2017-07-14T10:21:04.490Z,1095
2017-07-14T10:22:04.127Z,1010
2017-07-14T10:23:04.422Z,1150
2017-07-14T10:24:04.441Z,890
2017-07-14T10:25:04.414Z,860
2017-07-14T10:26:04.396Z,895
2017-07-14T10:27:04.404Z,1480
2017-07-14T10:28:04.389Z,940
2017-07-14T10:29:04.367Z,815
2017-07-14T10:30:04.368Z,895
2017-07-14T10:31:04.397Z,745
2017-07-14T10:32:04.019Z,725
2017-07-14T10:33:04.337Z,735
2017-07-14T10:34:04.327Z,720
2017-07-14T10:35:04.305Z,660
2017-07-14T10:36:03.677Z,610
2017-07-14T10:37:04.290Z,580
2017-07-14T10:38:04.262Z,640
2017-07-14T10:39:03.941Z,760
2017-07-14T10:40:04.261Z,1010
2017-07-14T10:41:03.928Z,805
2017-07-14T10:42:04.277Z,705
2017-07-14T10:43:04.204Z,690
2017-07-14T10:44:04.291Z,675
2017-07-14T10:45:04.166Z,670
2017-07-14T10:46:04.177Z,675
2017-07-14T10:47:04.151Z,695
2017-07-14T10:48:03.830Z,720
2017-07-14T10:49:03.815Z,765
2017-07-14T10:50:04.100Z,1380
2017-07-14T10:51:04.086Z,930
2017-07-14T10:52:04.125Z,1085
2017-07-14T10:53:03.757Z,1100
2017-07-14T10:54:04.048Z,855
2017-07-14T10:55:03.414Z,820
2017-07-14T10:56:04.022Z,860
2017-07-14T10:57:04.019Z,1100
2017-07-14T10:58:03.742Z,840
2017-07-14T10:59:04.036Z,710
2017-07-14T11:00:03.664Z,645
2017-07-14T11:01:03.952Z,675
2017-07-14T11:02:03.965Z,720
2017-07-14T11:03:03.934Z,735
2017-07-14T11:04:03.905Z,790
2017-07-14T11:05:03.914Z,1025
2017-07-14T11:06:03.574Z,850
2017-07-14T11:07:03.859Z,810
2017-07-14T11:08:03.240Z,815
2017-07-14T11:09:03.563Z,790
2017-07-14T11:10:03.831Z,765
2017-07-14T11:11:03.806Z,775
2017-07-14T11:12:03.790Z,745
2017-07-14T11:13:02.865Z,775
2017-07-14T11:14:03.475Z,805
2017-07-14T11:15:03.492Z,700
2017-07-14T11:16:03.739Z,715
2017-07-14T11:17:03.125Z,715
2017-07-14T11:18:03.722Z,755
2017-07-14T11:19:03.705Z,910
2017-07-14T11:20:03.703Z,920
2017-07-14T11:21:03.727Z,805
2017-07-14T11:22:03.668Z,745
2017-07-14T11:23:03.657Z,720
2017-07-14T11:24:03.642Z,675
2017-07-14T11:25:03.632Z,655
2017-07-14T11:26:03.618Z,655
2017-07-14T11:27:03.601Z,640
2017-07-14T11:28:03.581Z,605
2017-07-14T11:29:03.587Z,545
2017-07-14T11:30:03.553Z,490
2017-07-14T11:31:03.550Z,440
2017-07-14T11:32:03.226Z,430
2017-07-14T11:33:03.531Z,445
2017-07-14T11:34:03.502Z,480
2017-07-14T11:35:03.484Z,550
2017-07-14T11:36:03.172Z,620
2017-07-14T11:37:03.462Z,660
2017-07-14T11:38:02.822Z,660
2017-07-14T11:39:03.134Z,665
2017-07-14T11:40:03.412Z,650
2017-07-14T11:41:03.404Z,630
2017-07-14T11:42:03.410Z,610
2017-07-14T11:43:03.071Z,600
2017-07-14T11:44:03.351Z,560
2017-07-14T11:45:03.328Z,500
2017-07-14T11:46:03.012Z,485
2017-07-14T11:47:03.311Z,480
2017-07-14T11:48:03.302Z,475
2017-07-14T11:49:03.278Z,500
2017-07-14T11:50:03.278Z,510
2017-07-14T11:51:03.250Z,520
2017-07-14T11:52:03.251Z,490
2017-07-14T11:53:03.240Z,420
2017-07-14T11:54:02.965Z,395
2017-07-14T11:55:03.262Z,370
2017-07-14T11:56:03.185Z,355
2017-07-14T11:57:02.853Z,345
2017-07-14T11:58:03.154Z,335
2017-07-14T11:59:03.156Z,355
2017-07-14T12:00:02.805Z,390
2017-07-14T12:01:03.107Z,425
2017-07-14T12:02:03.086Z,450
2017-07-14T12:03:03.069Z,475
2017-07-14T12:04:03.048Z,515
2017-07-14T12:05:02.767Z,535
2017-07-14T12:06:02.696Z,525
2017-07-14T12:07:02.991Z,475
2017-07-14T12:08:02.667Z,440
2017-07-14T12:09:02.964Z,460
2017-07-14T12:10:02.955Z,490
2017-07-14T12:11:02.629Z,530
2017-07-14T12:12:02.916Z,585
2017-07-14T12:13:02.912Z,615
2017-07-14T12:14:02.580Z,635
2017-07-14T12:15:02.256Z,675
2017-07-14T12:16:02.573Z,640
2017-07-14T12:17:02.854Z,605
2017-07-14T12:18:02.562Z,575
2017-07-14T12:19:02.799Z,575
2017-07-14T12:20:02.495Z,600
2017-07-14T12:21:02.467Z,590
2017-07-14T12:22:02.452Z,560
2017-07-14T12:23:02.737Z,525
2017-07-14T12:24:02.728Z,515
2017-07-14T12:25:02.412Z,505
2017-07-14T12:26:02.705Z,465
2017-07-14T12:27:02.375Z,430
2017-07-14T12:28:02.678Z,405
2017-07-14T12:29:02.700Z,365
2017-07-14T12:30:02.682Z,340
2017-07-14T12:31:02.611Z,315
2017-07-14T12:32:02.595Z,295
2017-07-14T12:33:02.289Z,285
2017-07-14T12:34:02.251Z,275
2017-07-14T12:35:02.553Z,275
2017-07-14T12:36:02.539Z,285
2017-07-14T12:37:02.534Z,290
2017-07-14T12:38:02.502Z,300
2017-07-14T12:39:02.499Z,295
2017-07-14T12:40:02.483Z,285
2017-07-14T12:41:02.445Z,285
2017-07-14T12:42:02.433Z,280
2017-07-14T12:43:02.421Z,290
2017-07-14T12:44:01.483Z,300
2017-07-14T12:45:01.781Z,305
2017-07-14T12:46:02.384Z,305
2017-07-14T12:47:02.352Z,310
2017-07-14T12:48:02.329Z,310
2017-07-14T12:49:01.752Z,305
2017-07-14T12:50:02.291Z,305
2017-07-14T12:51:02.290Z,305
2017-07-14T12:52:01.347Z,320
2017-07-14T12:53:02.299Z,345
2017-07-14T12:54:02.224Z,385
2017-07-14T12:55:02.206Z,425
2017-07-14T12:56:02.199Z,390
2017-07-14T12:57:02.197Z,350
2017-07-14T12:58:02.170Z,340
2017-07-14T12:59:02.141Z,340
2017-07-14T13:00:02.128Z,370
2017-07-14T13:01:02.116Z,440
2017-07-14T13:02:02.083Z,490
2017-07-14T13:03:02.073Z,515
2017-07-14T13:04:02.065Z,520
2017-07-14T13:05:01.456Z,560
2017-07-14T13:06:01.772Z,575
2017-07-14T13:07:02.044Z,545
2017-07-14T13:08:01.675Z,510
2017-07-14T13:09:01.959Z,490
2017-07-14T13:10:01.946Z,505
2017-07-14T13:11:01.927Z,520
2017-07-14T13:12:01.925Z,545
2017-07-14T13:13:01.588Z,585
2017-07-14T13:14:01.875Z,585
2017-07-14T13:15:01.876Z,595
2017-07-14T13:16:01.851Z,600
2017-07-14T13:17:01.529Z,615
2017-07-14T13:18:01.801Z,615
2017-07-14T13:19:01.785Z,580
2017-07-14T13:20:01.776Z,560
2017-07-14T13:21:01.196Z,540
2017-07-14T13:22:01.749Z,555
2017-07-14T13:23:01.741Z,565
2017-07-14T13:24:01.450Z,575
2017-07-14T13:25:01.083Z,575
2017-07-14T13:26:01.373Z,610
2017-07-14T13:27:01.681Z,630
2017-07-14T13:28:01.658Z,625
2017-07-14T13:29:01.021Z,610
2017-07-14T13:30:01.612Z,635
2017-07-14T13:31:01.604Z,595
2017-07-14T13:32:01.594Z,580
2017-07-14T13:33:01.585Z,555
2017-07-14T13:34:01.556Z,540
2017-07-14T13:35:01.229Z,520
2017-07-14T13:36:01.206Z,505
2017-07-14T13:37:01.513Z,485
2017-07-14T13:38:01.493Z,405
2017-07-14T13:39:01.470Z,370
2017-07-14T13:40:01.506Z,330
2017-07-14T13:41:01.134Z,270
2017-07-14T13:42:01.445Z,270
2017-07-14T13:43:01.413Z,255
2017-07-14T13:44:01.388Z,225
2017-07-14T13:45:01.475Z,245
2017-07-14T13:46:01.079Z,260
2017-07-14T13:47:01.389Z,250
2017-07-14T13:48:01.332Z,290
2017-07-14T13:49:01.608Z,330
2017-07-14T13:50:01.292Z,335
2017-07-14T13:51:00.660Z,300
2017-07-14T13:52:00.956Z,295
2017-07-14T13:53:00.931Z,315
2017-07-14T13:54:01.251Z,345
2017-07-14T13:55:01.216Z,360
2017-07-14T13:56:01.188Z,330